Strona główna
METAR-TAF:

METAR-TAF

Lotnisko :

Port lotniczy Malabo

Malabo, Gwinea Równikowa

Szerokość geograficzna: 03-45-18N, Długość geograficzna: 08-42-31E, wysokość: 23 m

Aktualna obserwacja pogody

Raport powstał 1 godzina i 3 minut temu, godzina 10:00 UTC
Wiatr 4 kt od zachodnio-północny zachód, zmienny między zachodnio-południowy zachód i północno-północny zachód
Temperatura 31°C
Wilgotność 66%
Ciśnienie 1011 hPa
Widzialność 10 km lub więcej
Mało chmury na wysokości 1000 ft

METAR: FGSL 191000Z 29004KT 250V340 9999 FEW010 31/24 Q1011 NOSIG

czas: 12:03 (11:03 UTC)

Prognoza

Raport powstał 6 godziny i 3 minut temu, godzina 05:00 UTC
Prognoza ważna od 19 godzina 06 UTC do 20 godzina 12 UTC
Wiatr 6 kt od zachodnio-południowy zachód
Widzialność 10 km lub więcej
Rozproszone chmury na wysokości 1200 ft
Mało chmury na wysokości 2000 ft, Cumulonimbus.
Przejściowo
od 20 godzina 00 UTC do 20 godzina 08 UTC
burza

TAF: FGSL 190500Z 1906/2012 24006KT 9999 SCT012 FEW020CB TEMPO 2000/2008 TS

Obserwacja i prognoza pogody dla ponad 4000 lotnisk (raport METAR i TAF).

Dostępne stacje oznaczono żółtymi i czerwonymi punktami na mapie.

Najedź kursorem aby zobaczyć nazwę stacji.

Kliknij aby zobaczyć obserwacje i prognozy pogody.

Aby zmienić mapę: kliknij na zielony przycisk z czarnym krzyżykiem, aby powiększyć; na zielony przycisk z myślnikiem, aby pomniejszyć; na zielone strzałki, aby przejść do map sąsiednich.


METAR-TAF: